sensor_id;sensor_type;location;lat;lon;timestamp;pressure;altitude;pressure_sealevel;temperature;humidity
80116;BME280;69423;47.608;19.366;2023-10-09T00:00:18;99921.81;;;6.80;63.22
80116;BME280;69423;47.608;19.366;2023-10-09T00:01:03;99925.44;;;6.79;62.77
80116;BME280;69423;47.608;19.366;2023-10-09T00:01:48;99920.84;;;6.81;62.47
80116;BME280;69423;47.608;19.366;2023-10-09T00:02:19;99908.16;;;6.84;62.46
80116;BME280;69423;47.608;19.366;2023-10-09T00:02:50;99909.00;;;6.85;62.04
80116;BME280;69423;47.608;19.366;2023-10-09T00:03:21;99900.06;;;6.86;61.96
80116;BME280;69423;47.608;19.366;2023-10-09T00:03:55;99901.47;;;6.90;62.17
80116;BME280;69423;47.608;19.366;2023-10-09T00:04:26;99902.59;;;6.87;62.33
80116;BME280;69423;47.608;19.366;2023-10-09T00:04:57;99895.91;;;6.83;62.38
80116;BME280;69423;47.608;19.366;2023-10-09T00:05:28;99900.06;;;6.86;62.68
80116;BME280;69423;47.608;19.366;2023-10-09T00:06:10;99895.47;;;6.88;62.31
80116;BME280;69423;47.608;19.366;2023-10-09T00:06:44;99898.13;;;6.88;62.79
80116;BME280;69423;47.608;19.366;2023-10-09T00:07:15;99897.44;;;6.86;62.94
80116;BME280;69423;47.608;19.366;2023-10-09T00:07:47;99908.03;;;6.86;63.12
80116;BME280;69423;47.608;19.366;2023-10-09T00:08:18;99896.44;;;6.87;63.00
80116;BME280;69423;47.608;19.366;2023-10-09T00:08:53;99896.44;;;6.87;62.77
80116;BME280;69423;47.608;19.366;2023-10-09T00:09:25;99895.72;;;6.85;62.77
80116;BME280;69423;47.608;19.366;2023-10-09T00:10:01;99900.34;;;6.83;62.56
80116;BME280;69423;47.608;19.366;2023-10-09T00:10:42;99893.63;;;6.79;62.77
80116;BME280;69423;47.608;19.366;2023-10-09T00:11:23;99896.69;;;6.74;62.46
80116;BME280;69423;47.608;19.366;2023-10-09T00:12:00;99902.81;;;6.75;62.44
80116;BME280;69423;47.608;19.366;2023-10-09T00:12:32;99897.50;;;6.65;63.29
80116;BME280;69423;47.608;19.366;2023-10-09T00:13:03;99899.16;;;6.56;62.58
80116;BME280;69423;47.608;19.366;2023-10-09T00:13:35;99895.81;;;6.54;63.16
80116;BME280;69423;47.608;19.366;2023-10-09T00:14:08;99902.59;;;6.47;63.67
80116;BME280;69423;47.608;19.366;2023-10-09T00:14:39;99903.41;;;6.47;63.64
80116;BME280;69423;47.608;19.366;2023-10-09T00:15:11;99904.00;;;6.51;63.39
80116;BME280;69423;47.608;19.366;2023-10-09T00:15:43;99895.81;;;6.54;63.88
80116;BME280;69423;47.608;19.366;2023-10-09T00:16:16;99895.22;;;6.51;64.05
80116;BME280;69423;47.608;19.366;2023-10-09T00:16:47;99905.00;;;6.50;64.34
80116;BME280;69423;47.608;19.366;2023-10-09T00:17:19;99902.34;;;6.50;63.86
80116;BME280;69423;47.608;19.366;2023-10-09T00:17:50;99889.94;;;6.51;63.54
80116;BME280;69423;47.608;19.366;2023-10-09T00:18:22;99901.94;;;6.55;63.53
80116;BME280;69423;47.608;19.366;2023-10-09T00:19:05;99892.88;;;6.57;64.09
80116;BME280;69423;47.608;19.366;2023-10-09T00:19:51;99897.06;;;6.60;63.95
80116;BME280;69423;47.608;19.366;2023-10-09T00:20:22;99905.00;;;6.60;63.67
80116;BME280;69423;47.608;19.366;2023-10-09T00:20:56;99905.13;;;6.58;64.50
80116;BME280;69423;47.608;19.366;2023-10-09T00:21:31;99903.88;;;6.62;64.65
80116;BME280;69423;47.608;19.366;2023-10-09T00:22:05;99901.41;;;6.71;64.73
80116;BME280;69423;47.608;19.366;2023-10-09T00:22:41;99904.63;;;6.74;64.64
80116;BME280;69423;47.608;19.366;2023-10-09T00:23:16;99893.22;;;6.74;63.76
80116;BME280;69423;47.608;19.366;2023-10-09T00:23:47;99893.47;;;6.71;64.16
80116;BME280;69423;47.608;19.366;2023-10-09T00:24:24;99898.75;;;6.71;65.13
80116;BME280;69423;47.608;19.366;2023-10-09T00:24:57;99892.38;;;6.73;65.54
80116;BME280;69423;47.608;19.366;2023-10-09T00:25:51;99890.44;;;6.75;64.42
80116;BME280;69423;47.608;19.366;2023-10-09T00:26:44;99897.94;;;6.70;64.44
80116;BME280;69423;47.608;19.366;2023-10-09T00:27:17;99905.75;;;6.72;65.60
80116;BME280;69423;47.608;19.366;2023-10-09T00:27:50;99895.97;;;6.72;65.29
80116;BME280;69423;47.608;19.366;2023-10-09T00:28:21;99905.34;;;6.76;64.90
80116;BME280;69423;47.608;19.366;2023-10-09T00:28:53;99897.13;;;6.79;64.84
80116;BME280;69423;47.608;19.366;2023-10-09T00:29:24;99910.09;;;6.82;64.89
80116;BME280;69423;47.608;19.366;2023-10-09T00:29:59;99897.25;;;6.78;64.88
80116;BME280;69423;47.608;19.366;2023-10-09T00:30:30;99900.59;;;6.70;64.91
80116;BME280;69423;47.608;19.366;2023-10-09T00:31:06;99894.41;;;6.60;65.02
80116;BME280;69423;47.608;19.366;2023-10-09T00:31:45;99896.09;;;6.61;64.97
80116;BME280;69423;47.608;19.366;2023-10-09T00:32:21;99900.00;;;6.66;65.65
80116;BME280;69423;47.608;19.366;2023-10-09T00:32:58;99899.59;;;6.61;65.76
80116;BME280;69423;47.608;19.366;2023-10-09T00:33:29;99904.00;;;6.51;66.00
80116;BME280;69423;47.608;19.366;2023-10-09T00:34:00;99902.59;;;6.47;66.00
80116;BME280;69423;47.608;19.366;2023-10-09T00:34:38;99898.56;;;6.53;65.61
80116;BME280;69423;47.608;19.366;2023-10-09T00:35:12;99895.25;;;6.60;65.46
80116;BME280;69423;47.608;19.366;2023-10-09T00:36:05;99891.06;;;6.58;65.70
80116;BME280;69423;47.608;19.366;2023-10-09T00:36:40;99895.81;;;6.64;65.68
80116;BME280;69423;47.608;19.366;2023-10-09T00:37:20;99897.34;;;6.66;65.38
80116;BME280;69423;47.608;19.366;2023-10-09T00:37:56;99890.97;;;6.69;65.24
80116;BME280;69423;47.608;19.366;2023-10-09T00:38:33;99890.09;;;6.68;65.34
80116;BME280;69423;47.608;19.366;2023-10-09T00:39:05;99880.78;;;6.74;65.47
80116;BME280;69423;47.608;19.366;2023-10-09T00:39:49;99886.66;;;6.78;65.37
80116;BME280;69423;47.608;19.366;2023-10-09T00:40:31;99878.28;;;6.82;65.24
80116;BME280;69423;47.608;19.366;2023-10-09T00:41:02;99887.78;;;6.85;65.19
80116;BME280;69423;47.608;19.366;2023-10-09T00:41:45;99886.69;;;6.87;64.78
80116;BME280;69423;47.608;19.366;2023-10-09T00:42:16;99880.97;;;6.92;64.66
80116;BME280;69423;47.608;19.366;2023-10-09T00:42:59;99886.13;;;6.94;65.18
80116;BME280;69423;47.608;19.366;2023-10-09T00:43:35;99882.75;;;6.92;65.34
80116;BME280;69423;47.608;19.366;2023-10-09T00:44:07;99872.31;;;6.90;65.03
80116;BME280;69423;47.608;19.366;2023-10-09T00:44:38;99872.16;;;6.92;65.60
80116;BME280;69423;47.608;19.366;2023-10-09T00:45:13;99876.63;;;6.91;65.62
80116;BME280;69423;47.608;19.366;2023-10-09T00:45:57;99876.63;;;6.91;65.44
80116;BME280;69423;47.608;19.366;2023-10-09T00:46:48;99878.31;;;6.92;65.48
80116;BME280;69423;47.608;19.366;2023-10-09T00:47:19;99886.97;;;6.94;65.43
80116;BME280;69423;47.608;19.366;2023-10-09T00:47:52;99885.16;;;6.95;65.25
80116;BME280;69423;47.608;19.366;2023-10-09T00:48:27;99886.97;;;6.94;65.19
80116;BME280;69423;47.608;19.366;2023-10-09T00:49:09;99881.53;;;6.96;65.43
80116;BME280;69423;47.608;19.366;2023-10-09T00:49:41;99883.63;;;6.92;65.94
80116;BME280;69423;47.608;19.366;2023-10-09T00:50:15;99883.06;;;6.88;65.74
80116;BME280;69423;47.608;19.366;2023-10-09T00:50:46;99884.03;;;6.87;65.40
80116;BME280;69423;47.608;19.366;2023-10-09T00:51:23;99892.38;;;6.83;65.67
80116;BME280;69423;47.608;19.366;2023-10-09T00:51:55;99885.28;;;6.83;65.59
80116;BME280;69423;47.608;19.366;2023-10-09T00:52:32;99882.63;;;6.83;66.01
80116;BME280;69423;47.608;19.366;2023-10-09T00:53:07;99890.31;;;6.86;65.90
80116;BME280;69423;47.608;19.366;2023-10-09T00:53:48;99897.50;;;6.75;65.47
80116;BME280;69423;47.608;19.366;2023-10-09T00:54:22;99893.34;;;6.72;65.61
80116;BME280;69423;47.608;19.366;2023-10-09T00:54:59;99900.00;;;6.66;66.10
80116;BME280;69423;47.608;19.366;2023-10-09T00:55:35;99895.66;;;6.56;66.05
80116;BME280;69423;47.608;19.366;2023-10-09T00:56:13;99896.06;;;6.51;66.90
80116;BME280;69423;47.608;19.366;2023-10-09T00:56:51;99899.94;;;6.47;66.32
80116;BME280;69423;47.608;19.366;2023-10-09T00:57:29;99894.94;;;6.54;66.21
80116;BME280;69423;47.608;19.366;2023-10-09T00:58:02;99901.81;;;6.56;66.44
80116;BME280;69423;47.608;19.366;2023-10-09T00:58:40;99895.81;;;6.54;66.76
80116;BME280;69423;47.608;19.366;2023-10-09T00:59:15;99893.16;;;6.54;66.78
80116;BME280;69423;47.608;19.366;2023-10-09T00:59:47;99891.22;;;6.56;66.78
80116;BME280;69423;47.608;19.366;2023-10-09T01:00:29;99885.19;;;6.54;66.87
80116;BME280;69423;47.608;19.366;2023-10-09T01:01:15;99885.50;;;6.61;66.88
80116;BME280;69423;47.608;19.366;2023-10-09T01:01:47;99886.31;;;6.61;66.71
80116;BME280;69423;47.608;19.366;2023-10-09T01:02:27;99883.41;;;6.64;66.41
80116;BME280;69423;47.608;19.366;2023-10-09T01:03:14;99875.72;;;6.61;66.71
80116;BME280;69423;47.608;19.366;2023-10-09T01:03:48;99879.09;;;6.63;66.73
80116;BME280;69423;47.608;19.366;2023-10-09T01:04:24;99877.25;;;6.64;67.02
80116;BME280;69423;47.608;19.366;2023-10-09T01:04:56;99876.16;;;6.66;66.61
80116;BME280;69423;47.608;19.366;2023-10-09T01:05:28;99886.50;;;6.69;66.63
80116;BME280;69423;47.608;19.366;2023-10-09T01:06:01;99888.97;;;6.61;66.86
80116;BME280;69423;47.608;19.366;2023-10-09T01:06:44;99874.84;;;6.51;66.99
80116;BME280;69423;47.608;19.366;2023-10-09T01:07:16;99884.03;;;6.47;67.94
80116;BME280;69423;47.608;19.366;2023-10-09T01:07:51;99886.56;;;6.48;67.08
80116;BME280;69423;47.608;19.366;2023-10-09T01:08:29;99880.44;;;6.58;67.25
80116;BME280;69423;47.608;19.366;2023-10-09T01:09:13;99884.63;;;6.60;67.47
80116;BME280;69423;47.608;19.366;2023-10-09T01:09:45;99891.75;;;6.60;67.20
80116;BME280;69423;47.608;19.366;2023-10-09T01:10:16;99888.00;;;6.62;67.19
80116;BME280;69423;47.608;19.366;2023-10-09T01:10:47;99893.88;;;6.66;67.11
80116;BME280;69423;47.608;19.366;2023-10-09T01:11:27;99889.97;;;6.70;66.89
80116;BME280;69423;47.608;19.366;2023-10-09T01:12:01;99891.50;;;6.63;67.15
80116;BME280;69423;47.608;19.366;2023-10-09T01:12:32;99891.34;;;6.64;66.79
80116;BME280;69423;47.608;19.366;2023-10-09T01:13:03;99882.44;;;6.65;66.61
80116;BME280;69423;47.608;19.366;2023-10-09T01:13:35;99875.19;;;6.67;66.74
80116;BME280;69423;47.608;19.366;2023-10-09T01:14:12;99878.00;;;6.76;66.92
80116;BME280;69423;47.608;19.366;2023-10-09T01:14:44;99874.13;;;6.80;66.90
80116;BME280;69423;47.608;19.366;2023-10-09T01:15:15;99881.66;;;6.84;66.91
80116;BME280;69423;47.608;19.366;2023-10-09T01:16:06;99886.81;;;6.86;66.44
80116;BME280;69423;47.608;19.366;2023-10-09T01:16:43;99888.94;;;6.92;66.51
80116;BME280;69423;47.608;19.366;2023-10-09T01:17:15;99892.81;;;6.98;66.24
80116;BME280;69423;47.608;19.366;2023-10-09T01:18:01;99892.81;;;6.98;65.91
80116;BME280;69423;47.608;19.366;2023-10-09T01:18:32;99883.09;;;6.98;66.02
80116;BME280;69423;47.608;19.366;2023-10-09T01:19:09;99884.34;;;6.94;65.68
80116;BME280;69423;47.608;19.366;2023-10-09T01:19:44;99892.97;;;6.96;65.74
80116;BME280;69423;47.608;19.366;2023-10-09T01:20:22;99888.38;;;6.98;66.10
80116;BME280;69423;47.608;19.366;2023-10-09T01:21:00;99893.16;;;7.04;66.22
80116;BME280;69423;47.608;19.366;2023-10-09T01:21:33;99889.25;;;7.08;65.56
80116;BME280;69423;47.608;19.366;2023-10-09T01:22:04;99891.59;;;7.12;65.47
80116;BME280;69423;47.608;19.366;2023-10-09T01:22:43;99897.59;;;7.14;65.26
80116;BME280;69423;47.608;19.366;2023-10-09T01:23:18;99894.97;;;7.14;65.76
80116;BME280;69423;47.608;19.366;2023-10-09T01:23:50;99895.09;;;7.02;66.04
80116;BME280;69423;47.608;19.366;2023-10-09T01:24:34;99903.19;;;7.11;65.82
80116;BME280;69423;47.608;19.366;2023-10-09T01:25:09;99896.22;;;7.09;66.00
80116;BME280;69423;47.608;19.366;2023-10-09T01:25:41;99891.31;;;7.05;65.44
80116;BME280;69423;47.608;19.366;2023-10-09T01:26:20;99894.69;;;7.07;65.11
80116;BME280;69423;47.608;19.366;2023-10-09T01:26:53;99891.72;;;7.10;65.65
80116;BME280;69423;47.608;19.366;2023-10-09T01:27:28;99900.38;;;7.12;65.47
80116;BME280;69423;47.608;19.366;2023-10-09T01:28:03;99901.25;;;7.13;65.57
80116;BME280;69423;47.608;19.366;2023-10-09T01:28:34;99902.78;;;7.15;65.78
80116;BME280;69423;47.608;19.366;2023-10-09T01:29:06;99895.66;;;7.16;65.59
80116;BME280;69423;47.608;19.366;2023-10-09T01:29:42;99899.31;;;7.15;65.55
80116;BME280;69423;47.608;19.366;2023-10-09T01:30:13;99908.78;;;7.17;66.04
80116;BME280;69423;47.608;19.366;2023-10-09T01:30:44;99910.19;;;7.21;65.15
80116;BME280;69423;47.608;19.366;2023-10-09T01:31:18;99902.66;;;7.26;65.16
80116;BME280;69423;47.608;19.366;2023-10-09T01:31:53;99902.09;;;7.33;65.54
80116;BME280;69423;47.608;19.366;2023-10-09T01:32:26;99903.78;;;7.34;65.02
80116;BME280;69423;47.608;19.366;2023-10-09T01:32:57;99895.53;;;7.37;65.18
80116;BME280;69423;47.608;19.366;2023-10-09T01:33:31;99894.41;;;7.39;65.15
80116;BME280;69423;47.608;19.366;2023-10-09T01:34:06;99891.75;;;7.39;65.68
80116;BME280;69423;47.608;19.366;2023-10-09T01:34:40;99892.06;;;7.36;65.30
80116;BME280;69423;47.608;19.366;2023-10-09T01:35:14;99895.81;;;7.34;65.34
80116;BME280;69423;47.608;19.366;2023-10-09T01:35:52;99902.38;;;7.29;65.62
80116;BME280;69423;47.608;19.366;2023-10-09T01:36:29;99897.63;;;7.33;65.70
80116;BME280;69423;47.608;19.366;2023-10-09T01:37:03;99890.09;;;7.38;65.25
80116;BME280;69423;47.608;19.366;2023-10-09T01:37:36;99893.84;;;7.45;65.06
80116;BME280;69423;47.608;19.366;2023-10-09T01:38:08;99891.19;;;7.45;65.17
80116;BME280;69423;47.608;19.366;2023-10-09T01:38:44;99887.72;;;7.45;65.44
80116;BME280;69423;47.608;19.366;2023-10-09T01:39:16;99884.22;;;7.44;65.67
80116;BME280;69423;47.608;19.366;2023-10-09T01:39:56;99880.75;;;7.34;65.69
80116;BME280;69423;47.608;19.366;2023-10-09T01:40:47;99880.03;;;7.32;65.50
80116;BME280;69423;47.608;19.366;2023-10-09T01:41:22;99883.38;;;7.34;65.78
80116;BME280;69423;47.608;19.366;2023-10-09T01:41:54;99882.13;;;7.38;65.64
80116;BME280;69423;47.608;19.366;2023-10-09T01:42:36;99875.13;;;7.37;65.38
80116;BME280;69423;47.608;19.366;2023-10-09T01:43:15;99880.44;;;7.37;65.27
80116;BME280;69423;47.608;19.366;2023-10-09T01:43:49;99881.44;;;7.36;65.59
80116;BME280;69423;47.608;19.366;2023-10-09T01:44:24;99880.31;;;7.29;65.70
80116;BME280;69423;47.608;19.366;2023-10-09T01:44:56;99886.59;;;7.28;65.54
80116;BME280;69423;47.608;19.366;2023-10-09T01:45:40;99896.66;;;7.34;65.43
80116;BME280;69423;47.608;19.366;2023-10-09T01:46:17;99887.56;;;7.37;65.44
80116;BME280;69423;47.608;19.366;2023-10-09T01:46:50;99887.69;;;7.35;65.51
80116;BME280;69423;47.608;19.366;2023-10-09T01:47:23;99893.72;;;7.37;65.42
80116;BME280;69423;47.608;19.366;2023-10-09T01:47:56;99889.66;;;7.43;65.56
80116;BME280;69423;47.608;19.366;2023-10-09T01:48:27;99887.84;;;7.43;65.68
80116;BME280;69423;47.608;19.366;2023-10-09T01:48:58;99881.72;;;7.43;65.64
80116;BME280;69423;47.608;19.366;2023-10-09T01:49:39;99888.16;;;7.40;65.75
80116;BME280;69423;47.608;19.366;2023-10-09T01:50:12;99886.19;;;7.42;65.43
80116;BME280;69423;47.608;19.366;2023-10-09T01:50:50;99885.91;;;7.36;66.06
80116;BME280;69423;47.608;19.366;2023-10-09T01:51:21;99889.41;;;7.36;65.92
80116;BME280;69423;47.608;19.366;2023-10-09T01:51:52;99883.09;;;7.37;65.70
80116;BME280;69423;47.608;19.366;2023-10-09T01:52:24;99885.50;;;7.40;65.57
80116;BME280;69423;47.608;19.366;2023-10-09T01:52:55;99879.47;;;7.38;65.27
80116;BME280;69423;47.608;19.366;2023-10-09T01:53:26;99891.34;;;7.34;65.75
80116;BME280;69423;47.608;19.366;2023-10-09T01:54:00;99886.47;;;7.29;65.99
80116;BME280;69423;47.608;19.366;2023-10-09T01:54:31;99891.34;;;7.34;66.04
80116;BME280;69423;47.608;19.366;2023-10-09T01:55:07;99891.59;;;7.31;66.24
80116;BME280;69423;47.608;19.366;2023-10-09T01:55:41;99891.59;;;7.31;66.14
80116;BME280;69423;47.608;19.366;2023-10-09T01:56:16;99886.31;;;7.31;65.94
80116;BME280;69423;47.608;19.366;2023-10-09T01:56:47;99887.16;;;7.32;65.81
80116;BME280;69423;47.608;19.366;2023-10-09T01:57:19;99881.69;;;7.33;65.47
80116;BME280;69423;47.608;19.366;2023-10-09T01:57:54;99886.75;;;7.36;65.20
80116;BME280;69423;47.608;19.366;2023-10-09T01:58:25;99886.03;;;7.34;65.21
80116;BME280;69423;47.608;19.366;2023-10-09T01:58:58;99891.59;;;7.31;64.96
80116;BME280;69423;47.608;19.366;2023-10-09T01:59:36;99892.72;;;7.28;64.95
80116;BME280;69423;47.608;19.366;2023-10-09T02:00:14;99890.66;;;7.32;64.94
80116;BME280;69423;47.608;19.366;2023-10-09T02:00:53;99886.03;;;7.34;65.08
80116;BME280;69423;47.608;19.366;2023-10-09T02:01:27;99889.53;;;7.35;65.15
80116;BME280;69423;47.608;19.366;2023-10-09T02:01:58;99899.19;;;7.36;64.84
80116;BME280;69423;47.608;19.366;2023-10-09T02:02:31;99892.06;;;7.36;64.36
80116;BME280;69423;47.608;19.366;2023-10-09T02:03:05;99889.25;;;7.38;64.71
80116;BME280;69423;47.608;19.366;2023-10-09T02:03:43;99892.63;;;7.40;64.51
80116;BME280;69423;47.608;19.366;2023-10-09T02:04:15;99889.09;;;7.39;64.27
80116;BME280;69423;47.608;19.366;2023-10-09T02:05:02;99889.81;;;7.41;64.62
80116;BME280;69423;47.608;19.366;2023-10-09T02:05:45;99888.53;;;7.45;64.54
80116;BME280;69423;47.608;19.366;2023-10-09T02:06:16;99891.63;;;7.41;64.46
80116;BME280;69423;47.608;19.366;2023-10-09T02:06:57;99887.00;;;7.33;64.84
80116;BME280;69423;47.608;19.366;2023-10-09T02:07:28;99889.81;;;7.32;64.98
80116;BME280;69423;47.608;19.366;2023-10-09T02:08:01;99885.59;;;7.29;64.60
80116;BME280;69423;47.608;19.366;2023-10-09T02:08:33;99887.16;;;7.22;64.91
80116;BME280;69423;47.608;19.366;2023-10-09T02:09:06;99885.75;;;7.18;64.88
80116;BME280;69423;47.608;19.366;2023-10-09T02:09:38;99887.97;;;7.22;65.03
80116;BME280;69423;47.608;19.366;2023-10-09T02:10:19;99887.16;;;7.22;65.26
80116;BME280;69423;47.608;19.366;2023-10-09T02:11:02;99880.47;;;7.27;64.94
80116;BME280;69423;47.608;19.366;2023-10-09T02:11:33;99879.59;;;7.27;64.97
80116;BME280;69423;47.608;19.366;2023-10-09T02:12:07;99879.75;;;7.25;65.34
80116;BME280;69423;47.608;19.366;2023-10-09T02:12:39;99885.06;;;7.25;65.04
80116;BME280;69423;47.608;19.366;2023-10-09T02:13:11;99878.63;;;7.18;65.61
80116;BME280;69423;47.608;19.366;2023-10-09T02:13:42;99881.44;;;7.17;65.86
80116;BME280;69423;47.608;19.366;2023-10-09T02:14:13;99878.63;;;7.18;65.90
80116;BME280;69423;47.608;19.366;2023-10-09T02:14:51;99894.28;;;7.21;66.80
80116;BME280;69423;47.608;19.366;2023-10-09T02:15:27;99886.03;;;7.15;67.21
80116;BME280;69423;47.608;19.366;2023-10-09T02:16:13;99882.53;;;7.04;66.06
80116;BME280;69423;47.608;19.366;2023-10-09T02:16:49;99883.25;;;7.06;66.70
80116;BME280;69423;47.608;19.366;2023-10-09T02:17:38;99887.28;;;7.11;67.20
80116;BME280;69423;47.608;19.366;2023-10-09T02:18:22;99882.81;;;7.11;68.73
80116;BME280;69423;47.608;19.366;2023-10-09T02:18:54;99881.69;;;7.14;69.22
80116;BME280;69423;47.608;19.366;2023-10-09T02:19:27;99893.13;;;7.14;68.55
80116;BME280;69423;47.608;19.366;2023-10-09T02:20:09;99887.00;;;7.14;68.29
80116;BME280;69423;47.608;19.366;2023-10-09T02:21:03;99894.00;;;7.15;67.51
80116;BME280;69423;47.608;19.366;2023-10-09T02:21:35;99895.66;;;7.16;68.48
80116;BME280;69423;47.608;19.366;2023-10-09T02:22:12;99895.94;;;7.13;68.07
80116;BME280;69423;47.608;19.366;2023-10-09T02:22:43;99900.56;;;7.11;67.95
80116;BME280;69423;47.608;19.366;2023-10-09T02:23:14;99895.78;;;7.14;68.01
80116;BME280;69423;47.608;19.366;2023-10-09T02:23:51;99892.19;;;7.15;68.75
80116;BME280;69423;47.608;19.366;2023-10-09T02:24:27;99892.88;;;7.17;69.08
80116;BME280;69423;47.608;19.366;2023-10-09T02:25:34;99887.56;;;7.17;68.39
80116;BME280;69423;47.608;19.366;2023-10-09T02:26:10;99892.47;;;7.22;67.94
80116;BME280;69423;47.608;19.366;2023-10-09T02:26:47;99902.22;;;7.21;68.31
80116;BME280;69423;47.608;19.366;2023-10-09T02:27:21;99904.06;;;7.21;68.61
80116;BME280;69423;47.608;19.366;2023-10-09T02:28:16;99900.41;;;7.22;68.77
80116;BME280;69423;47.608;19.366;2023-10-09T02:28:53;99909.06;;;7.24;68.94
80116;BME280;69423;47.608;19.366;2023-10-09T02:29:34;99899.28;;;7.24;68.44
80116;BME280;69423;47.608;19.366;2023-10-09T02:30:13;99906.41;;;7.24;70.25
80116;BME280;69423;47.608;19.366;2023-10-09T02:30:50;99905.72;;;7.22;70.34
80116;BME280;69423;47.608;19.366;2023-10-09T02:31:22;99904.88;;;7.21;70.41
80116;BME280;69423;47.608;19.366;2023-10-09T02:31:53;99906.13;;;7.17;69.92
80116;BME280;69423;47.608;19.366;2023-10-09T02:32:31;99900.84;;;7.17;70.01
80116;BME280;69423;47.608;19.366;2023-10-09T02:33:04;99896.78;;;7.23;69.99
80116;BME280;69423;47.608;19.366;2023-10-09T02:33:39;99891.75;;;7.20;70.02
80116;BME280;69423;47.608;19.366;2023-10-09T02:34:10;99887.84;;;7.24;70.70
80116;BME280;69423;47.608;19.366;2023-10-09T02:34:42;99883.50;;;7.23;70.70
80116;BME280;69423;47.608;19.366;2023-10-09T02:35:17;99892.31;;;7.23;70.14
80116;BME280;69423;47.608;19.366;2023-10-09T02:36:07;99885.31;;;7.22;69.49
80116;BME280;69423;47.608;19.366;2023-10-09T02:36:38;99882.41;;;7.25;68.92
80116;BME280;69423;47.608;19.366;2023-10-09T02:37:13;99875.56;;;7.23;68.80
80116;BME280;69423;47.608;19.366;2023-10-09T02:37:44;99877.25;;;7.24;68.81
80116;BME280;69423;47.608;19.366;2023-10-09T02:38:17;99875.28;;;7.26;68.75
80116;BME280;69423;47.608;19.366;2023-10-09T02:38:48;99874.16;;;7.28;69.58
80116;BME280;69423;47.608;19.366;2023-10-09T02:39:19;99865.09;;;7.31;68.86
80116;BME280;69423;47.608;19.366;2023-10-09T02:40:14;99871.09;;;7.33;69.54
80116;BME280;69423;47.608;19.366;2023-10-09T02:41:02;99858.53;;;7.35;69.98
80116;BME280;69423;47.608;19.366;2023-10-09T02:41:33;99860.22;;;7.36;68.83
80116;BME280;69423;47.608;19.366;2023-10-09T02:42:05;99856.44;;;7.39;67.95
80116;BME280;69423;47.608;19.366;2023-10-09T02:42:45;99851.25;;;7.37;67.69
80116;BME280;69423;47.608;19.366;2023-10-09T02:43:16;99858.53;;;7.35;66.90
80116;BME280;69423;47.608;19.366;2023-10-09T02:43:49;99859.38;;;7.36;67.26
80116;BME280;69423;47.608;19.366;2023-10-09T02:44:26;99855.03;;;7.35;66.82
80116;BME280;69423;47.608;19.366;2023-10-09T02:45:00;99852.50;;;7.33;66.85
80116;BME280;69423;47.608;19.366;2023-10-09T02:45:34;99853.38;;;7.34;67.01
80116;BME280;69423;47.608;19.366;2023-10-09T02:46:09;99853.50;;;7.32;65.82
80116;BME280;69423;47.608;19.366;2023-10-09T02:46:59;99854.34;;;7.33;66.30
80116;BME280;69423;47.608;19.366;2023-10-09T02:47:35;99860.47;;;7.33;66.96
80116;BME280;69423;47.608;19.366;2023-10-09T02:48:10;99855.34;;;7.32;68.33
80116;BME280;69423;47.608;19.366;2023-10-09T02:48:41;99858.81;;;7.32;67.70
80116;BME280;69423;47.608;19.366;2023-10-09T02:49:16;99849.16;;;7.31;66.58
80116;BME280;69423;47.608;19.366;2023-10-09T02:49:47;99852.13;;;7.28;66.73
80116;BME280;69423;47.608;19.366;2023-10-09T02:50:21;99858.13;;;7.30;67.20
80116;BME280;69423;47.608;19.366;2023-10-09T02:50:53;99854.91;;;7.36;68.34
80116;BME280;69423;47.608;19.366;2023-10-09T02:51:26;99850.31;;;7.38;68.00
80116;BME280;69423;47.608;19.366;2023-10-09T02:51:57;99851.25;;;7.37;67.70
80116;BME280;69423;47.608;19.366;2023-10-09T02:52:29;99855.47;;;7.40;67.69
80116;BME280;69423;47.608;19.366;2023-10-09T02:53:05;99854.78;;;7.38;67.21
80116;BME280;69423;47.608;19.366;2023-10-09T02:53:40;99857.97;;;7.41;66.71
80116;BME280;69423;47.608;19.366;2023-10-09T02:54:12;99857.13;;;7.41;66.37
80116;BME280;69423;47.608;19.366;2023-10-09T02:54:49;99848.34;;;7.40;66.17
80116;BME280;69423;47.608;19.366;2023-10-09T02:55:28;99843.88;;;7.41;65.48
80116;BME280;69423;47.608;19.366;2023-10-09T02:55:59;99836.47;;;7.44;66.21
80116;BME280;69423;47.608;19.366;2023-10-09T02:56:50;99839.13;;;7.44;65.70
80116;BME280;69423;47.608;19.366;2023-10-09T02:57:27;99846.38;;;7.42;65.18
80116;BME280;69423;47.608;19.366;2023-10-09T02:58:06;99844.44;;;7.44;65.00
80116;BME280;69423;47.608;19.366;2023-10-09T02:58:41;99842.91;;;7.42;64.85
80116;BME280;69423;47.608;19.366;2023-10-09T02:59:14;99844.69;;;7.41;65.21
80116;BME280;69423;47.608;19.366;2023-10-09T02:59:45;99838.44;;;7.42;64.54
80116;BME280;69423;47.608;19.366;2023-10-09T03:00:16;99834.09;;;7.41;64.48
80116;BME280;69423;47.608;19.366;2023-10-09T03:00:50;99847.34;;;7.41;64.31
80116;BME280;69423;47.608;19.366;2023-10-09T03:01:22;99837.44;;;7.43;64.91
80116;BME280;69423;47.608;19.366;2023-10-09T03:01:53;99840.66;;;7.47;64.90
80116;BME280;69423;47.608;19.366;2023-10-09T03:02:24;99840.94;;;7.44;66.28
80116;BME280;69423;47.608;19.366;2023-10-09T03:02:55;99839.13;;;7.44;65.86
80116;BME280;69423;47.608;19.366;2023-10-09T03:03:29;99841.66;;;7.46;65.58
80116;BME280;69423;47.608;19.366;2023-10-09T03:04:01;99834.66;;;7.45;64.24
80116;BME280;69423;47.608;19.366;2023-10-09T03:04:33;99834.78;;;7.43;64.01
80116;BME280;69423;47.608;19.366;2023-10-09T03:05:04;99837.44;;;7.43;63.65
80116;BME280;69423;47.608;19.366;2023-10-09T03:05:35;99832.00;;;7.45;63.51
80116;BME280;69423;47.608;19.366;2023-10-09T03:06:14;99827.50;;;7.45;64.32
80116;BME280;69423;47.608;19.366;2023-10-09T03:06:49;99834.78;;;7.43;63.56
80116;BME280;69423;47.608;19.366;2023-10-09T03:07:20;99824.72;;;7.47;63.22
80116;BME280;69423;47.608;19.366;2023-10-09T03:07:54;99819.16;;;7.50;63.67
80116;BME280;69423;47.608;19.366;2023-10-09T03:08:25;99833.13;;;7.52;64.26